首页
METAR-TAF:

METAR-TAF

机场 :

桐艾機場

桐艾市, 泰国

纬度: 12-16-28N, 经度: 102-19-08E, 海拔: 32米

当前天气观测

该预报发布于2小时和7分钟前的11:00 UTC
风速4节,风向
温度 28°C
湿度 84%
气压 1007 hPa
能見度: 9000
少量云层高于1600英尺, 积雨云.
多云层高于10000英尺
附近有阵雨,

METAR: VTBO 171100Z 18004KT 9000 VCSH FEW016CB BKN100 28/25 Q1007 RERA

时间: 20:07 (13:07 UTC)

预报

该预报发布于2小时和7分钟前的11:00 UTC
预报有效从17日的 12点(UTC)到 18日的 12点(UTC)
风速8节,风向西南
能见度10公里或以上
少量云层高于2000英尺
散云层高于10000英尺
短暂存在
从 17日的 22点(UTC)到 18日的 02点(UTC)
风速15节,风向多变
能見度: 3000
少量云层高于1800英尺, 积雨云.
散云层高于2200英尺
多云层高于10000英尺
雷暴, 雨,

TAF: VTBO 171100Z 1712/1812 23008KT 9999 FEW020 SCT100 TEMPO 1722/1802 VRB15KT 3000 TSRA FEW018CB SCT022 BKN100

超过4000个机场的气象观测和天气预报(METAR&TAF报告)。

可查询的气象台以黄色和红色小点在地图上表示。

将鼠标移到小点上方,可查看气象台名称。

然后点击查看天气观测和预报。

如需切换地图:点击带黑十字的绿色按钮放大地图;点击带横线的绿色按钮缩小地图;或者点击绿色箭头查看邻近地区的地图。


METAR-TAF: